createdAt,value
2022-10-05T00:00:26.708Z,82.21
2022-10-05T00:02:54.564Z,81.86
2022-10-05T00:05:21.133Z,82.21
2022-10-05T00:07:47.951Z,82.11
2022-10-05T00:10:17.466Z,82.06
2022-10-05T00:12:45.680Z,82.06
2022-10-05T00:15:13.438Z,82.05
2022-10-05T00:17:41.919Z,82.08
2022-10-05T00:20:20.250Z,82.23
2022-10-05T00:22:47.551Z,82.21
2022-10-05T00:25:21.184Z,81.97
2022-10-05T00:27:55.610Z,81.91
2022-10-05T00:30:23.287Z,81.91
2022-10-05T00:32:49.818Z,82.03
2022-10-05T00:35:18.545Z,81.80
2022-10-05T00:37:47.122Z,81.73
2022-10-05T00:40:21.026Z,82.12
2022-10-05T00:43:06.236Z,82.16
2022-10-05T00:45:43.166Z,82.37
2022-10-05T00:48:21.483Z,81.98
2022-10-05T00:50:57.102Z,82.09
2022-10-05T00:53:43.876Z,82.23
2022-10-05T00:56:19.233Z,82.19
2022-10-05T00:58:54.701Z,82.26
2022-10-05T01:01:38.816Z,82.29
2022-10-05T01:04:25.440Z,82.58
2022-10-05T01:07:15.853Z,82.47
2022-10-05T01:09:55.893Z,82.52
2022-10-05T01:12:48.125Z,82.60
2022-10-05T01:15:24.028Z,82.65
2022-10-05T01:18:10.803Z,82.69
2022-10-05T01:20:43.433Z,83.06
2022-10-05T01:23:39.347Z,83.03
2022-10-05T01:26:20.965Z,83.21
2022-10-05T01:28:58.543Z,83.18
2022-10-05T01:31:54.439Z,83.17
2022-10-05T01:34:38.563Z,82.98
2022-10-05T01:37:23.488Z,83.32
2022-10-05T01:39:55.032Z,83.46
2022-10-05T01:42:37.443Z,83.42
2022-10-05T01:45:06.785Z,83.66
2022-10-05T01:47:59.753Z,83.82
2022-10-05T01:50:57.912Z,84.11
2022-10-05T01:53:33.456Z,84.35
2022-10-05T01:56:18.907Z,84.37
2022-10-05T01:59:26.877Z,84.64
2022-10-05T02:02:01.812Z,84.74
2022-10-05T02:07:36.642Z,85.27
2022-10-05T02:10:12.576Z,85.50
2022-10-05T02:12:39.150Z,85.83
2022-10-05T02:15:14.552Z,85.66
2022-10-05T02:17:48.908Z,85.88
2022-10-05T02:20:24.744Z,85.86
2022-10-05T02:22:54.657Z,85.85
2022-10-05T02:25:29.480Z,86.01
2022-10-05T02:28:06.175Z,85.95
2022-10-05T02:30:38.963Z,85.91
2022-10-05T02:33:12.696Z,86.10
2022-10-05T02:35:39.376Z,86.04
2022-10-05T02:38:16.813Z,86.07
2022-10-05T02:40:48.901Z,86.13
2022-10-05T02:43:57.596Z,86.05
2022-10-05T02:46:28.877Z,86.39
2022-10-05T02:49:23.947Z,86.39
2022-10-05T02:51:56.285Z,86.30
2022-10-05T02:55:01.212Z,86.31
2022-10-05T02:57:37.409Z,86.35
2022-10-05T03:00:21.164Z,86.60
2022-10-05T03:02:52.663Z,86.54
2022-10-05T03:05:25.354Z,86.52
2022-10-05T03:08:02.853Z,86.47
2022-10-05T03:11:03.435Z,86.46
2022-10-05T03:13:50.752Z,86.25
2022-10-05T03:16:25.788Z,86.53
2022-10-05T03:19:12.400Z,86.50
2022-10-05T03:21:51.659Z,86.26
2022-10-05T03:24:32.961Z,86.55
2022-10-05T03:27:19.592Z,86.41
2022-10-05T03:30:11.288Z,86.34
2022-10-05T03:32:51.020Z,86.54
2022-10-05T03:35:40.802Z,86.44
2022-10-05T03:38:19.679Z,86.32
2022-10-05T03:41:14.275Z,85.92
2022-10-05T03:43:52.819Z,86.26
2022-10-05T03:46:51.375Z,86.12
2022-10-05T03:49:30.419Z,85.95
2022-10-05T03:52:12.580Z,85.99
2022-10-05T03:54:44.810Z,85.84
2022-10-05T03:57:21.765Z,85.90
2022-10-05T04:00:12.777Z,85.59
2022-10-05T04:02:49.257Z,85.47
2022-10-05T04:05:29.279Z,85.14
2022-10-05T04:08:10.085Z,85.31
2022-10-05T04:10:48.292Z,84.93
2022-10-05T04:13:29.422Z,85.02
2022-10-05T04:16:10.001Z,84.79
2022-10-05T04:18:36.439Z,84.23
2022-10-05T04:21:13.431Z,84.53
2022-10-05T04:23:48.881Z,84.15
2022-10-05T04:26:40.519Z,83.89
2022-10-05T04:29:34.732Z,83.72
2022-10-05T04:32:04.177Z,83.66
2022-10-05T04:34:56.544Z,83.44
2022-10-05T04:37:35.176Z,83.22
2022-10-05T04:40:22.827Z,83.24
2022-10-05T04:43:09.024Z,83.19
2022-10-05T04:46:17.305Z,83.39
2022-10-05T04:49:14.972Z,82.91
2022-10-05T04:52:26.737Z,82.84
2022-10-05T04:55:01.972Z,82.85
2022-10-05T04:57:46.252Z,82.63
2022-10-05T05:00:24.859Z,82.46
2022-10-05T05:03:12.763Z,82.19
2022-10-05T05:06:16.929Z,82.20
2022-10-05T05:09:02.980Z,82.35
2022-10-05T05:11:42.922Z,82.37
2022-10-05T05:14:43.369Z,82.28
2022-10-05T05:17:45.218Z,82.29
2022-10-05T05:20:22.549Z,82.18
2022-10-05T05:22:59.601Z,82.06
2022-10-05T05:26:03.502Z,81.92
2022-10-05T05:28:42.398Z,82.06
2022-10-05T05:31:32.960Z,82.21
2022-10-05T05:33:59.800Z,82.07
2022-10-05T05:36:32.352Z,82.11
2022-10-05T05:39:23.706Z,81.98
2022-10-05T05:42:16.307Z,82.30
2022-10-05T05:44:46.476Z,82.43
2022-10-05T05:47:35.453Z,82.59
2022-10-05T05:50:24.293Z,82.65
2022-10-05T05:52:55.589Z,82.86
2022-10-05T05:55:44.869Z,82.65
2022-10-05T05:58:25.494Z,82.78
2022-10-05T06:01:02.635Z,83.12
2022-10-05T06:03:39.259Z,83.05
2022-10-05T06:06:10.829Z,83.10
2022-10-05T06:08:45.195Z,83.27
2022-10-05T06:11:18.960Z,83.28
2022-10-05T06:13:47.711Z,83.25
2022-10-05T06:16:24.319Z,83.37
2022-10-05T06:19:13.108Z,83.56
2022-10-05T06:21:45.058Z,83.60
2022-10-05T06:24:49.957Z,83.43
2022-10-05T06:27:53.745Z,83.72
2022-10-05T06:30:20.328Z,83.55
2022-10-05T06:33:14.075Z,83.53
2022-10-05T06:35:58.972Z,83.69
2022-10-05T06:38:53.049Z,83.79
2022-10-05T06:41:36.755Z,83.49
2022-10-05T06:44:17.849Z,83.68
2022-10-05T06:47:04.540Z,83.25
2022-10-05T06:49:42.479Z,83.63
2022-10-05T06:52:29.779Z,83.50
2022-10-05T06:55:36.149Z,83.28
2022-10-05T06:58:27.811Z,83.10
2022-10-05T07:01:03.060Z,83.14
2022-10-05T07:03:56.896Z,83.19
2022-10-05T07:07:01.612Z,83.09
2022-10-05T07:09:53.974Z,83.15
2022-10-05T07:12:48.250Z,83.18
2022-10-05T07:15:28.838Z,83.00
2022-10-05T07:18:10.614Z,82.82
2022-10-05T07:20:50.572Z,82.71
2022-10-05T07:23:38.326Z,82.46
2022-10-05T07:26:07.695Z,82.65
2022-10-05T07:28:46.251Z,82.67
2022-10-05T07:31:27.247Z,82.56
2022-10-05T07:34:09.721Z,82.43
2022-10-05T07:37:08.422Z,82.42
2022-10-05T07:40:00.255Z,81.85
2022-10-05T07:42:53.552Z,82.31
2022-10-05T07:45:37.919Z,82.29
2022-10-05T07:48:15.357Z,82.16
2022-10-05T07:51:04.593Z,82.17
2022-10-05T07:53:39.443Z,81.91
2022-10-05T07:56:21.344Z,81.77
2022-10-05T07:58:55.303Z,82.18
2022-10-05T08:01:27.815Z,81.90
2022-10-05T08:03:56.379Z,81.62
2022-10-05T08:06:38.208Z,81.50
2022-10-05T08:09:10.459Z,81.52
2022-10-05T08:11:55.720Z,81.64
2022-10-05T08:14:41.159Z,81.04
2022-10-05T08:17:25.464Z,81.43
2022-10-05T08:20:06.171Z,80.98
2022-10-05T08:22:44.354Z,80.74
2022-10-05T08:25:30.346Z,80.42
2022-10-05T08:28:05.257Z,81.01
2022-10-05T08:30:48.525Z,80.55
2022-10-05T08:33:18.385Z,80.22
2022-10-05T08:35:55.740Z,80.43
2022-10-05T08:38:31.864Z,79.81
2022-10-05T08:41:01.188Z,80.15
2022-10-05T08:44:06.237Z,79.97
2022-10-05T08:46:44.076Z,79.85
2022-10-05T08:49:49.225Z,79.61
2022-10-05T08:52:37.392Z,79.50
2022-10-05T08:55:09.983Z,79.01
2022-10-05T08:58:11.262Z,79.19
2022-10-05T09:01:01.645Z,78.80
2022-10-05T09:04:00.280Z,78.83
2022-10-05T09:06:34.417Z,78.55
2022-10-05T09:09:36.377Z,77.96
2022-10-05T09:12:37.456Z,77.58
2022-10-05T09:15:28.693Z,77.73
2022-10-05T09:18:07.316Z,77.50
2022-10-05T09:20:53.998Z,77.59
2022-10-05T09:23:23.410Z,76.55
2022-10-05T09:26:26.934Z,76.52
2022-10-05T09:29:14.732Z,75.78
2022-10-05T09:32:12.918Z,75.80
2022-10-05T09:35:16.090Z,75.33
2022-10-05T09:38:13.851Z,74.66
2022-10-05T09:41:14.395Z,74.43
2022-10-05T09:43:59.203Z,74.05
2022-10-05T09:46:45.803Z,74.10
2022-10-05T09:49:19.778Z,73.90
2022-10-05T09:52:08.569Z,73.53
2022-10-05T09:55:20.168Z,74.24
2022-10-05T09:57:55.611Z,74.30
2022-10-05T10:00:58.826Z,74.31
2022-10-05T10:03:54.399Z,73.91
2022-10-05T10:06:49.089Z,74.62
2022-10-05T10:09:27.662Z,73.58
2022-10-05T10:12:18.542Z,73.91
2022-10-05T10:14:54.065Z,73.41
2022-10-05T10:17:43.618Z,73.80
2022-10-05T10:20:23.645Z,73.52
2022-10-05T10:23:08.942Z,73.48
2022-10-05T10:26:14.396Z,73.77
2022-10-05T10:32:18.317Z,73.60
2022-10-05T10:34:50.960Z,73.71
2022-10-05T10:37:58.459Z,73.68
2022-10-05T10:40:50.550Z,73.61
2022-10-05T10:43:27.205Z,73.72
2022-10-05T10:46:29.166Z,73.05
2022-10-05T10:49:32.821Z,73.96
2022-10-05T10:52:40.717Z,73.95
2022-10-05T10:55:39.007Z,73.55
2022-10-05T10:58:10.220Z,73.85
2022-10-05T11:01:01.690Z,73.65
2022-10-05T11:03:46.166Z,73.89
2022-10-05T11:06:17.205Z,73.67
2022-10-05T11:08:54.722Z,73.87
2022-10-05T11:11:58.614Z,74.55
2022-10-05T11:14:49.356Z,74.48
2022-10-05T11:17:29.374Z,74.44
2022-10-05T11:20:33.600Z,74.56
2022-10-05T11:23:02.983Z,74.01
2022-10-05T11:26:11.129Z,74.24
2022-10-05T11:28:48.947Z,74.03
2022-10-05T11:31:26.429Z,73.41
2022-10-05T11:34:27.048Z,73.45
2022-10-05T11:37:07.003Z,73.57
2022-10-05T11:39:42.446Z,72.97
2022-10-05T11:42:46.504Z,72.81
2022-10-05T11:45:54.424Z,72.79
2022-10-05T11:48:39.574Z,72.64
2022-10-05T11:51:14.980Z,72.61
2022-10-05T11:53:41.454Z,72.72
2022-10-05T11:56:23.914Z,72.53
2022-10-05T11:59:00.677Z,72.39
2022-10-05T12:01:57.277Z,71.92
2022-10-05T12:04:29.780Z,71.01
2022-10-05T12:07:17.559Z,71.03
2022-10-05T12:10:03.991Z,70.81
2022-10-05T12:12:54.401Z,70.22
2022-10-05T12:15:42.153Z,70.03
2022-10-05T12:18:17.882Z,69.34
2022-10-05T12:21:06.204Z,69.36
2022-10-05T12:23:54.865Z,69.56
2022-10-05T12:26:44.742Z,69.59
2022-10-05T12:29:26.195Z,69.31
2022-10-05T12:31:59.598Z,69.30
2022-10-05T12:34:40.091Z,67.50
2022-10-05T12:37:40.771Z,68.83
2022-10-05T12:40:38.077Z,68.25
2022-10-05T12:43:29.401Z,67.91
2022-10-05T12:46:08.259Z,67.04
2022-10-05T12:49:04.214Z,67.67
2022-10-05T12:51:39.952Z,67.92
2022-10-05T12:54:23.301Z,68.18
2022-10-05T12:56:54.785Z,67.32
2022-10-05T12:59:40.384Z,67.18
2022-10-05T13:02:25.075Z,67.44
2022-10-05T13:05:17.262Z,67.00
2022-10-05T13:08:01.835Z,67.32
2022-10-05T13:10:43.814Z,68.39
2022-10-05T13:13:45.458Z,68.59
2022-10-05T13:16:12.123Z,68.43
2022-10-05T13:18:49.952Z,68.53
2022-10-05T13:21:50.031Z,69.01
2022-10-05T13:24:24.757Z,69.21
2022-10-05T13:26:56.587Z,69.67
2022-10-05T13:29:43.392Z,69.23
2022-10-05T13:32:25.157Z,69.90
2022-10-05T13:34:51.583Z,70.26
2022-10-05T13:37:27.702Z,70.53
2022-10-05T13:40:23.329Z,69.86
2022-10-05T13:43:11.331Z,70.43
2022-10-05T13:45:40.846Z,70.39
2022-10-05T13:48:24.393Z,69.67
2022-10-05T13:51:34.475Z,69.67
2022-10-05T13:54:14.217Z,69.26
2022-10-05T13:56:48.488Z,68.11
2022-10-05T13:59:38.238Z,69.02
2022-10-05T14:02:09.371Z,68.86
2022-10-05T14:05:00.979Z,68.43
2022-10-05T14:07:38.537Z,67.37
2022-10-05T14:10:13.798Z,67.64
2022-10-05T14:12:43.581Z,67.97
2022-10-05T14:15:41.957Z,67.36
2022-10-05T14:18:30.843Z,66.28
2022-10-05T14:21:18.639Z,66.08
2022-10-05T14:23:45.500Z,65.29
2022-10-05T14:26:23.669Z,65.20
2022-10-05T14:28:59.910Z,65.59
2022-10-05T14:31:31.683Z,65.61
2022-10-05T14:34:29.196Z,65.97
2022-10-05T14:36:59.661Z,65.39
2022-10-05T14:39:27.893Z,65.06
2022-10-05T14:41:54.662Z,65.01
2022-10-05T14:47:11.842Z,65.43
2022-10-05T14:49:49.740Z,65.65
2022-10-05T14:52:51.641Z,66.40
2022-10-05T14:55:58.170Z,66.09
2022-10-05T14:58:44.963Z,66.27
2022-10-05T15:01:26.261Z,65.94
2022-10-05T15:04:16.790Z,66.21
2022-10-05T15:07:24.916Z,66.44
2022-10-05T15:10:07.325Z,65.79
2022-10-05T15:12:46.760Z,64.98
2022-10-05T15:15:27.050Z,65.25
2022-10-05T15:18:03.086Z,65.25
2022-10-05T15:20:43.338Z,66.18
2022-10-05T15:23:40.966Z,66.19
2022-10-05T15:26:15.034Z,66.51
2022-10-05T15:28:48.971Z,67.13
2022-10-05T15:31:27.679Z,66.53
2022-10-05T15:34:03.610Z,66.99
2022-10-05T15:36:41.481Z,67.25
2022-10-05T15:39:37.216Z,67.32
2022-10-05T15:42:09.947Z,67.45
2022-10-05T15:45:19.243Z,67.71
2022-10-05T15:48:20.178Z,67.57
2022-10-05T15:50:55.862Z,68.32
2022-10-05T15:53:52.358Z,68.57
2022-10-05T15:56:36.174Z,68.87
2022-10-05T15:59:19.228Z,69.18
2022-10-05T16:02:01.761Z,68.79
2022-10-05T16:05:15.944Z,68.73
2022-10-05T16:08:12.381Z,67.93
2022-10-05T16:10:44.121Z,68.03
2022-10-05T16:13:28.660Z,67.77
2022-10-05T16:16:16.932Z,67.46
2022-10-05T16:19:01.085Z,67.59
2022-10-05T16:21:45.822Z,67.31
2022-10-05T16:24:47.302Z,67.16
2022-10-05T16:27:55.360Z,67.49
2022-10-05T16:30:23.341Z,67.44
2022-10-05T16:32:55.236Z,67.88
2022-10-05T16:35:53.582Z,68.04
2022-10-05T16:38:34.136Z,68.28
2022-10-05T16:41:32.576Z,68.41
2022-10-05T16:44:01.790Z,68.72
2022-10-05T16:46:37.443Z,68.58
2022-10-05T16:49:37.339Z,69.07
2022-10-05T16:52:07.081Z,69.20
2022-10-05T16:54:46.831Z,69.49
2022-10-05T16:57:22.216Z,69.71
2022-10-05T16:59:54.859Z,69.82
2022-10-05T17:02:56.802Z,70.10
2022-10-05T17:05:31.957Z,70.15
2022-10-05T17:08:27.744Z,70.31
2022-10-05T17:11:19.912Z,70.57
2022-10-05T17:14:30.823Z,70.85
2022-10-05T17:17:25.220Z,70.55
2022-10-05T17:20:13.107Z,71.12
2022-10-05T17:22:53.102Z,71.15
2022-10-05T17:25:42.708Z,71.20
2022-10-05T17:28:34.954Z,71.37
2022-10-05T17:31:14.857Z,71.63
2022-10-05T17:33:59.555Z,71.72
2022-10-05T17:36:43.773Z,71.83
2022-10-05T17:39:15.143Z,71.94
2022-10-05T17:41:42.320Z,72.00
2022-10-05T17:44:16.181Z,72.14
2022-10-05T17:46:45.980Z,72.47
2022-10-05T17:49:40.413Z,72.37
2022-10-05T17:52:45.080Z,72.62
2022-10-05T17:55:25.661Z,72.59
2022-10-05T17:57:52.606Z,72.91
2022-10-05T18:00:34.268Z,72.92
2022-10-05T18:03:22.644Z,73.21
2022-10-05T18:06:22.027Z,73.18
2022-10-05T18:08:48.516Z,73.18
2022-10-05T18:11:36.744Z,73.40
2022-10-05T18:14:19.231Z,73.33
2022-10-05T18:16:59.396Z,73.49
2022-10-05T18:19:30.145Z,73.74
2022-10-05T18:22:03.514Z,73.55
2022-10-05T18:24:39.346Z,73.89
2022-10-05T18:27:31.763Z,73.70
2022-10-05T18:30:07.744Z,73.58
2022-10-05T18:33:12.761Z,74.01
2022-10-05T18:35:58.149Z,74.09
2022-10-05T18:38:51.256Z,74.19
2022-10-05T18:41:40.425Z,74.11
2022-10-05T18:44:39.501Z,74.36
2022-10-05T18:47:13.792Z,74.51
2022-10-05T18:49:47.277Z,74.47
2022-10-05T18:52:31.920Z,74.59
2022-10-05T18:55:16.632Z,74.70
2022-10-05T18:57:54.109Z,75.04
2022-10-05T19:00:23.504Z,75.07
2022-10-05T19:03:23.562Z,74.96
2022-10-05T19:06:13.085Z,75.20
2022-10-05T19:09:11.385Z,75.41
2022-10-05T19:11:43.927Z,75.43
2022-10-05T19:14:34.845Z,75.20
2022-10-05T19:17:20.424Z,75.57
2022-10-05T19:20:08.877Z,75.96
2022-10-05T19:23:26.447Z,76.27
2022-10-05T19:26:08.374Z,76.59
2022-10-05T19:28:41.783Z,76.67
2022-10-05T19:31:11.375Z,76.67
2022-10-05T19:33:56.547Z,76.93
2022-10-05T19:36:44.908Z,76.60
2022-10-05T19:39:49.132Z,76.99
2022-10-05T19:42:25.021Z,77.48
2022-10-05T19:45:18.738Z,77.39
2022-10-05T19:47:54.431Z,79.33
2022-10-05T19:50:23.977Z,81.86
2022-10-05T19:52:57.241Z,82.51
2022-10-05T19:55:34.615Z,84.46
2022-10-05T19:58:01.315Z,84.40
2022-10-05T20:00:31.319Z,84.88
2022-10-05T20:03:14.365Z,84.70
2022-10-05T20:05:41.141Z,84.28
2022-10-05T20:08:14.375Z,84.72
2022-10-05T20:10:40.936Z,85.04
2022-10-05T20:13:20.891Z,85.62
2022-10-05T20:16:35.492Z,85.48
2022-10-05T20:19:21.781Z,85.77
2022-10-05T20:21:48.259Z,86.08
2022-10-05T20:24:25.410Z,85.91
2022-10-05T20:27:04.875Z,86.28
2022-10-05T20:29:42.704Z,86.93
2022-10-05T20:32:12.549Z,87.13
2022-10-05T20:34:44.707Z,87.32
2022-10-05T20:37:13.511Z,87.15
2022-10-05T20:39:41.121Z,87.51
2022-10-05T20:42:08.883Z,87.46
2022-10-05T20:44:36.063Z,87.25
2022-10-05T20:47:03.557Z,87.39
2022-10-05T20:49:35.102Z,87.64
2022-10-05T20:52:02.474Z,87.92
2022-10-05T20:54:29.829Z,87.96
2022-10-05T20:56:56.670Z,88.15
2022-10-05T20:59:24.657Z,88.20
2022-10-05T21:01:51.981Z,88.29
2022-10-05T21:04:24.015Z,88.57
2022-10-05T21:06:50.833Z,88.83
2022-10-05T21:09:19.313Z,89.22
2022-10-05T21:11:54.475Z,88.80
2022-10-05T21:14:21.144Z,89.04
2022-10-05T21:16:47.776Z,88.98
2022-10-05T21:19:14.748Z,87.71
2022-10-05T21:21:42.715Z,87.29
2022-10-05T21:24:11.228Z,87.41
2022-10-05T21:26:37.647Z,87.09
2022-10-05T21:29:06.857Z,87.27
2022-10-05T21:31:37.183Z,87.52
2022-10-05T21:34:04.372Z,87.24
2022-10-05T21:36:30.851Z,87.27
2022-10-05T21:38:57.445Z,87.30
2022-10-05T21:41:23.957Z,87.28
2022-10-05T21:43:50.550Z,87.38
2022-10-05T21:46:20.346Z,87.23
2022-10-05T21:48:48.221Z,87.50
2022-10-05T21:51:17.571Z,87.46
2022-10-05T21:53:51.639Z,88.01
2022-10-05T21:56:22.294Z,87.56
2022-10-05T21:58:50.097Z,87.99
2022-10-05T22:01:22.244Z,87.78
2022-10-05T22:03:49.208Z,88.26
2022-10-05T22:06:16.782Z,88.24
2022-10-05T22:08:43.495Z,88.55
2022-10-05T22:11:13.814Z,88.84
2022-10-05T22:13:46.111Z,88.73
2022-10-05T22:16:13.624Z,88.87
2022-10-05T22:18:40.560Z,88.87
2022-10-05T22:21:09.991Z,89.20
2022-10-05T22:23:36.550Z,89.18
2022-10-05T22:26:03.939Z,89.40
2022-10-05T22:28:32.604Z,89.46
2022-10-05T22:31:02.929Z,89.61
2022-10-05T22:33:29.777Z,89.63
2022-10-05T22:35:59.116Z,90.06
2022-10-05T22:38:26.249Z,90.17
2022-10-05T22:40:53.105Z,90.53
2022-10-05T22:43:19.662Z,90.31
2022-10-05T22:45:46.099Z,90.46
2022-10-05T22:48:12.850Z,90.66
2022-10-05T22:50:39.356Z,90.78
2022-10-05T22:53:06.001Z,90.87
2022-10-05T22:55:32.486Z,90.92
2022-10-05T22:57:58.946Z,90.87
2022-10-05T23:00:40.379Z,90.91
2022-10-05T23:03:12.814Z,90.87
2022-10-05T23:05:39.261Z,91.13
2022-10-05T23:08:05.722Z,91.18
2022-10-05T23:10:32.303Z,90.75
2022-10-05T23:13:00.958Z,90.98
2022-10-05T23:15:27.871Z,91.27
2022-10-05T23:17:56.150Z,91.17
2022-10-05T23:20:24.543Z,91.14
2022-10-05T23:22:51.044Z,91.12
2022-10-05T23:25:17.872Z,91.25
2022-10-05T23:27:44.435Z,90.97
2022-10-05T23:30:12.619Z,91.24
2022-10-05T23:32:40.118Z,91.08
2022-10-05T23:35:08.163Z,91.00
2022-10-05T23:37:43.090Z,91.23
2022-10-05T23:40:13.961Z,90.73
2022-10-05T23:42:41.891Z,90.73
2022-10-05T23:45:10.127Z,90.76
2022-10-05T23:47:36.591Z,90.52
2022-10-05T23:50:05.264Z,89.92
2022-10-05T23:52:31.791Z,90.37
2022-10-05T23:54:58.275Z,90.41
2022-10-05T23:57:25.036Z,90.49
2022-10-05T23:59:51.481Z,90.42
